EJU21E EHAM-LEBB
Flight info
| Callsign | EJU21E |
|---|---|
| Flight time | N/A |
| Altitude | 34000 |
| Route | WOODY N872 MEDIL DCT KOVIN DCT DUCRA UM728 RESMI UN857 DISAK DCT ARKIP DCT ARNAV DCT LMG DCT UVELI DCT OSMOB DCT VAVIX DCT BTZ DCT URUNA P181 SSN L176 CEGAM |
| Aircraft | A20N/M-SDE2E3FGHIRWXY/LB1 |
Departure
| Time | N/A |
|---|---|
| Airport | Amsterdam Airport Schiphol (EHAM) |
Arrival
| Time | 2026-04-27 09:36 |
|---|---|
| Airport | Bilbao Airport (LEBB) |
| Time | Latitude | Longitude | Altitude | Speed | Heading |
|---|---|---|---|---|---|
| 2026-04-27 08:57 | 50.17729 | 3.56615 | 34249 ft | 424 kts | 206° |
| 2026-04-27 08:58 | 50.12255 | 3.53171 | 34246 ft | 424 kts | 206° |
| 2026-04-27 08:58 | 49.99732 | 3.45255 | 34252 ft | 424 kts | 206° |
| 2026-04-27 08:59 | 49.77814 | 3.31506 | 34239 ft | 423 kts | 206° |
| 2026-04-27 08:59 | 49.56032 | 3.17971 | 34237 ft | 422 kts | 206° |
| 2026-04-27 09:00 | 49.34200 | 3.04538 | 34249 ft | 422 kts | 206° |
| 2026-04-27 09:00 | 49.12542 | 2.91337 | 34229 ft | 422 kts | 206° |
| 2026-04-27 09:01 | 48.90696 | 2.78146 | 34234 ft | 422 kts | 206° |
| 2026-04-27 09:01 | 48.67412 | 2.64225 | 34244 ft | 423 kts | 206° |
| 2026-04-27 09:02 | 48.45577 | 2.51294 | 34224 ft | 420 kts | 205° |
| 2026-04-27 09:02 | 48.23736 | 2.38484 | 34208 ft | 421 kts | 205° |
| 2026-04-27 09:03 | 48.01858 | 2.25761 | 34202 ft | 422 kts | 205° |
| 2026-04-27 09:03 | 47.79860 | 2.13088 | 34202 ft | 425 kts | 205° |
| 2026-04-27 09:04 | 47.52301 | 1.97234 | 34224 ft | 417 kts | 201° |
| 2026-04-27 09:04 | 47.38107 | 1.89107 | 34027 ft | 422 kts | 204° |
| 2026-04-27 09:04 | 47.27121 | 1.82759 | 34209 ft | 424 kts | 205° |
| 2026-04-27 09:05 | 47.05085 | 1.70264 | 34191 ft | 426 kts | 204° |
| 2026-04-27 09:05 | 46.82959 | 1.57886 | 34184 ft | 423 kts | 204° |
| 2026-04-27 09:06 | 46.61080 | 1.45757 | 34182 ft | 423 kts | 204° |
| 2026-04-27 09:06 | 46.38986 | 1.33615 | 34175 ft | 425 kts | 204° |
| 2026-04-27 09:07 | 46.16775 | 1.21513 | 34186 ft | 428 kts | 204° |
| 2026-04-27 09:07 | 45.94438 | 1.09451 | 34184 ft | 428 kts | 203° |
| 2026-04-27 09:08 | 45.73848 | 0.93286 | 34162 ft | 423 kts | 222° |
| 2026-04-27 09:08 | 45.55717 | 0.71660 | 34165 ft | 424 kts | 221° |
| 2026-04-27 09:09 | 45.37547 | 0.50190 | 34145 ft | 425 kts | 221° |
| 2026-04-27 09:09 | 45.19310 | 0.28826 | 34167 ft | 423 kts | 221° |
| 2026-04-27 09:10 | 45.01027 | 0.07589 | 34168 ft | 425 kts | 221° |
| 2026-04-27 09:10 | 44.82660 | -0.13560 | 34169 ft | 426 kts | 220° |
| 2026-04-27 09:11 | 44.64307 | -0.34418 | 34171 ft | 427 kts | 217° |
| 2026-04-27 09:11 | 44.44662 | -0.53294 | 34172 ft | 428 kts | 216° |
| 2026-04-27 09:12 | 44.24994 | -0.72144 | 34178 ft | 429 kts | 217° |
| 2026-04-27 09:12 | 44.05697 | -0.91903 | 34189 ft | 430 kts | 217° |
| 2026-04-27 09:13 | 43.97489 | -1.00210 | 34176 ft | 431 kts | 217° |
| 2026-04-27 09:13 | 43.92638 | -1.05107 | 34181 ft | 431 kts | 217° |
| 2026-04-27 09:14 | 43.87778 | -1.10004 | 34185 ft | 431 kts | 217° |
| 2026-04-27 09:14 | 43.82949 | -1.14858 | 34036 ft | 431 kts | 217° |
| 2026-04-27 09:14 | 43.80490 | -1.17327 | 33753 ft | 431 kts | 217° |
| 2026-04-27 09:15 | 43.78060 | -1.19764 | 33347 ft | 433 kts | 217° |
| 2026-04-27 09:15 | 43.75644 | -1.22184 | 32532 ft | 437 kts | 217° |
| 2026-04-27 09:15 | 43.73171 | -1.24659 | 31626 ft | 440 kts | 217° |
| 2026-04-27 09:15 | 43.70699 | -1.27130 | 31029 ft | 434 kts | 217° |
| 2026-04-27 09:16 | 43.68259 | -1.29565 | 30439 ft | 429 kts | 217° |
| 2026-04-27 09:16 | 43.65848 | -1.31969 | 29793 ft | 424 kts | 217° |
| 2026-04-27 09:16 | 43.63468 | -1.34341 | 29202 ft | 418 kts | 217° |
| 2026-04-27 09:16 | 43.61127 | -1.36672 | 28625 ft | 412 kts | 217° |
| 2026-04-27 09:17 | 43.58816 | -1.38970 | 28054 ft | 406 kts | 217° |
| 2026-04-27 09:17 | 43.56537 | -1.41235 | 27492 ft | 402 kts | 217° |
| 2026-04-27 09:17 | 43.54281 | -1.43475 | 26926 ft | 397 kts | 217° |
| 2026-04-27 09:17 | 43.52079 | -1.45660 | 26376 ft | 393 kts | 217° |
| 2026-04-27 09:18 | 43.49867 | -1.47853 | 25818 ft | 389 kts | 217° |
| 2026-04-27 09:18 | 43.47783 | -1.50210 | 25261 ft | 386 kts | 224° |
| 2026-04-27 09:18 | 43.45934 | -1.52865 | 24731 ft | 382 kts | 230° |
| 2026-04-27 09:18 | 43.44327 | -1.55783 | 24155 ft | 380 kts | 236° |
| 2026-04-27 09:19 | 43.42874 | -1.58820 | 23553 ft | 378 kts | 236° |
| 2026-04-27 09:19 | 43.41431 | -1.61816 | 23008 ft | 373 kts | 236° |
| 2026-04-27 09:19 | 43.40022 | -1.64727 | 22479 ft | 368 kts | 236° |
| 2026-04-27 09:19 | 43.38610 | -1.67635 | 21941 ft | 364 kts | 236° |
| 2026-04-27 09:20 | 43.37209 | -1.70513 | 21399 ft | 360 kts | 236° |
| 2026-04-27 09:20 | 43.35823 | -1.73361 | 20876 ft | 357 kts | 236° |
| 2026-04-27 09:20 | 43.34446 | -1.76187 | 20338 ft | 355 kts | 236° |
| 2026-04-27 09:20 | 43.33078 | -1.79001 | 19821 ft | 352 kts | 236° |
| 2026-04-27 09:21 | 43.31694 | -1.81769 | 19285 ft | 350 kts | 233° |
| 2026-04-27 09:21 | 43.30102 | -1.84293 | 18745 ft | 349 kts | 226° |
| 2026-04-27 09:21 | 43.28312 | -1.86553 | 18187 ft | 348 kts | 222° |
| 2026-04-27 09:21 | 43.26518 | -1.88770 | 17657 ft | 345 kts | 223° |
| 2026-04-27 09:22 | 43.24771 | -1.90942 | 17141 ft | 342 kts | 223° |
| 2026-04-27 09:22 | 43.22994 | -1.93156 | 16616 ft | 339 kts | 223° |
| 2026-04-27 09:22 | 43.21272 | -1.95300 | 16095 ft | 337 kts | 223° |
| 2026-04-27 09:22 | 43.19535 | -1.97461 | 15581 ft | 335 kts | 222° |
| 2026-04-27 09:23 | 43.17809 | -1.99604 | 15063 ft | 334 kts | 222° |
| 2026-04-27 09:23 | 43.16092 | -2.01735 | 14553 ft | 332 kts | 222° |
| 2026-04-27 09:23 | 43.14379 | -2.03858 | 14043 ft | 332 kts | 222° |
| 2026-04-27 09:23 | 43.12674 | -2.05968 | 13505 ft | 330 kts | 222° |
| 2026-04-27 09:24 | 43.10976 | -2.08067 | 12990 ft | 327 kts | 222° |
| 2026-04-27 09:24 | 43.09294 | -2.10149 | 12494 ft | 324 kts | 222° |
| 2026-04-27 09:24 | 43.07624 | -2.12213 | 11990 ft | 322 kts | 222° |
| 2026-04-27 09:24 | 43.05966 | -2.14262 | 11497 ft | 320 kts | 223° |
| 2026-04-27 09:25 | 43.04318 | -2.16299 | 10998 ft | 319 kts | 223° |
| 2026-04-27 09:25 | 43.02673 | -2.18330 | 10513 ft | 317 kts | 223° |
| 2026-04-27 09:25 | 43.01135 | -2.20435 | 10240 ft | 308 kts | 235° |
| 2026-04-27 09:25 | 43.00295 | -2.23024 | 10057 ft | 294 kts | 259° |
| 2026-04-27 09:26 | 43.00320 | -2.25729 | 9741 ft | 287 kts | 285° |
| 2026-04-27 09:26 | 43.01218 | -2.28105 | 9598 ft | 284 kts | 311° |
| 2026-04-27 09:26 | 43.02626 | -2.30049 | 9468 ft | 291 kts | 315° |
| 2026-04-27 09:26 | 43.04101 | -2.31995 | 9077 ft | 298 kts | 315° |
| 2026-04-27 09:27 | 43.05576 | -2.33985 | 8682 ft | 298 kts | 314° |
| 2026-04-27 09:27 | 43.07008 | -2.35975 | 8407 ft | 291 kts | 313° |
| 2026-04-27 09:27 | 43.08413 | -2.37958 | 7984 ft | 289 kts | 313° |
| 2026-04-27 09:27 | 43.09769 | -2.39903 | 7857 ft | 276 kts | 312° |
| 2026-04-27 09:28 | 43.11064 | -2.41761 | 7743 ft | 263 kts | 313° |
| 2026-04-27 09:28 | 43.12279 | -2.43563 | 7635 ft | 251 kts | 308° |
| 2026-04-27 09:28 | 43.13281 | -2.45485 | 7381 ft | 247 kts | 300° |
| 2026-04-27 09:28 | 43.14113 | -2.47536 | 7032 ft | 247 kts | 295° |
| 2026-04-27 09:29 | 43.14886 | -2.49647 | 6554 ft | 254 kts | 295° |
| 2026-04-27 09:29 | 43.15662 | -2.51750 | 6569 ft | 241 kts | 295° |
| 2026-04-27 09:29 | 43.16421 | -2.53809 | 6622 ft | 239 kts | 295° |
| 2026-04-27 09:29 | 43.17149 | -2.55788 | 6493 ft | 228 kts | 295° |
| 2026-04-27 09:30 | 43.17852 | -2.57697 | 6288 ft | 221 kts | 295° |
| 2026-04-27 09:30 | 43.18540 | -2.59565 | 6060 ft | 216 kts | 295° |
| 2026-04-27 09:30 | 43.19197 | -2.61351 | 5802 ft | 205 kts | 295° |
| 2026-04-27 09:30 | 43.19825 | -2.63059 | 5531 ft | 197 kts | 295° |
| 2026-04-27 09:31 | 43.20442 | -2.64734 | 5287 ft | 196 kts | 295° |
| 2026-04-27 09:31 | 43.21056 | -2.66404 | 5032 ft | 196 kts | 295° |
| 2026-04-27 09:31 | 43.21669 | -2.68074 | 4768 ft | 195 kts | 295° |
| 2026-04-27 09:31 | 43.22278 | -2.69732 | 4496 ft | 194 kts | 295° |
| 2026-04-27 09:32 | 43.22888 | -2.71390 | 4240 ft | 194 kts | 296° |
| 2026-04-27 09:32 | 43.23483 | -2.73008 | 3978 ft | 183 kts | 296° |
| 2026-04-27 09:32 | 43.24029 | -2.74491 | 3756 ft | 169 kts | 296° |
| 2026-04-27 09:32 | 43.24566 | -2.75955 | 3542 ft | 173 kts | 296° |
| 2026-04-27 09:33 | 43.25100 | -2.77410 | 3307 ft | 165 kts | 296° |
| 2026-04-27 09:33 | 43.25589 | -2.78738 | 3089 ft | 149 kts | 296° |
| 2026-04-27 09:33 | 43.26037 | -2.79959 | 2887 ft | 139 kts | 297° |
| 2026-04-27 09:33 | 43.26456 | -2.81101 | 2699 ft | 131 kts | 297° |
| 2026-04-27 09:34 | 43.26876 | -2.82245 | 2517 ft | 134 kts | 297° |
| 2026-04-27 09:34 | 43.27290 | -2.83377 | 2288 ft | 132 kts | 296° |
| 2026-04-27 09:34 | 43.27698 | -2.84521 | 1959 ft | 134 kts | 296° |
| 2026-04-27 09:34 | 43.28145 | -2.85669 | 1539 ft | 140 kts | 299° |
| 2026-04-27 09:35 | 43.28589 | -2.86883 | 1104 ft | 144 kts | 298° |
| 2026-04-27 09:35 | 43.28891 | -2.87730 | 736 ft | 151 kts | 297° |
| 2026-04-27 09:35 | 43.29361 | -2.89017 | 358 ft | 147 kts | 297° |
| 2026-04-27 09:35 | 43.29803 | -2.90222 | 139 ft | 134 kts | 297° |
| 2026-04-27 09:36 | 43.30271 | -2.91492 | 124 ft | 79 kts | 296° |
| 2026-04-27 09:36 | 43.30381 | -2.91785 | 124 ft | 18 kts | 301° |
| 2026-04-27 09:36 | 43.30488 | -2.91945 | 124 ft | 22 kts | 324° |
| 2026-04-27 09:36 | 43.30580 | -2.92041 | 125 ft | 12 kts | 332° |
| 2026-04-27 09:37 | 43.30628 | -2.91966 | 125 ft | 15 kts | 108° |
| 2026-04-27 09:37 | 43.30576 | -2.91818 | 126 ft | 19 kts | 118° |
| 2026-04-27 09:37 | 43.30510 | -2.91645 | 125 ft | 22 kts | 116° |
| 2026-04-27 09:37 | 43.30437 | -2.91445 | 124 ft | 25 kts | 116° |
| 2026-04-27 09:38 | 43.30358 | -2.91228 | 124 ft | 27 kts | 117° |
| 2026-04-27 09:38 | 43.30305 | -2.91060 | 124 ft | 16 kts | 85° |
| 2026-04-27 09:38 | 43.30365 | -2.90998 | 125 ft | 8 kts | 24° |
| 2026-04-27 09:38 | 43.30404 | -2.90938 | 127 ft | 10 kts | 82° |
| 2026-04-27 09:39 | 43.30406 | -2.90820 | 127 ft | 14 kts | 89° |
| 2026-04-27 09:39 | 43.30365 | -2.90683 | 124 ft | 17 kts | 117° |
| 2026-04-27 09:39 | 43.30322 | -2.90597 | 127 ft | 1 kts | 145° |
| 2026-04-27 09:39 | 43.30312 | -2.90570 | 124 ft | 4 kts | 79° |
| 2026-04-27 09:40 | 43.30350 | -2.90533 | 125 ft | 8 kts | 37° |
| 2026-04-27 09:40 | 43.30376 | -2.90509 | 123 ft | 0 kts | 27° |
| 2026-04-27 09:40 | 43.30379 | -2.90507 | 123 ft | 2 kts | 27° |